Terminal Aerodrome Forecast
Issued by NWS

Home | Current Version | Previous Version | Text Only | Print | Product List | Glossary On
Versions: 1 2 3 4 5 6 7 8 9 10 11 12 13 14 15 16 17 18 19 20 21 22
000
FTUS43 KFGF 252320
TAFDVL
TAF
KDVL 252320Z 2600/2624 VRB06KT P6SM FEW080
     FM261500 23009KT P6SM FEW250
     FM262000 20010KT P6SM BKN120=

USA.gov is the U.S. government's official web portal to all federal, state and local government web resources and services.